Time;durP1;ratioP1;P1;durP2;ratioP2;P2;SDS_P1;SDS_P2;PMS_P1;PMS_P2;Temp;Humidity;BMP_temperature;BMP_pressure;BME280_temperature;BME280_humidity;BME280_pressure;Samples;Min_cycle;Max_cycle;Signal;HPM_P1;HPM_P2
2022/10/17 00:00:59;;;;;;;12.63;6.05;;;;;;;13.22;100.00;101518.81;5089366;28;20054;-67
2022/10/17 00:03:24;;;;;;;15.95;7.10;;;;;;;13.25;100.00;101517.59;5088896;28;20032;-67
2022/10/17 00:05:50;;;;;;;12.75;6.53;;;;;;;13.29;100.00;101516.22;5089379;28;20035;-67
2022/10/17 00:08:17;;;;;;;10.60;6.07;;;;;;;13.31;100.00;101519.53;5089429;28;20543;-67
2022/10/17 00:10:43;;;;;;;9.10;6.03;;;;;;;13.34;100.00;101521.81;5089326;28;20046;-67
2022/10/17 00:13:09;;;;;;;11.27;6.55;;;;;;;13.31;100.00;101509.66;5089321;28;20036;-67
2022/10/17 00:15:34;;;;;;;14.10;6.85;;;;;;;13.35;100.00;101518.09;5089305;28;20016;-67
2022/10/17 00:18:00;;;;;;;11.93;6.65;;;;;;;13.36;100.00;101515.22;5089373;28;20076;-67
2022/10/17 00:20:26;;;;;;;9.73;5.90;;;;;;;13.35;100.00;101512.75;5089114;28;20080;-67
2022/10/17 00:22:52;;;;;;;10.07;5.95;;;;;;;13.33;100.00;101501.38;5089288;28;20068;-67
2022/10/17 00:25:18;;;;;;;11.23;6.30;;;;;;;13.37;100.00;101513.38;5089252;28;20035;-67
2022/10/17 00:27:44;;;;;;;11.80;6.10;;;;;;;13.30;100.00;101496.44;5089211;28;20036;-67
2022/10/17 00:30:13;;;;;;;10.68;6.00;;;;;;;13.36;100.00;101504.53;5089174;28;20123;-67
2022/10/17 00:32:39;;;;;;;10.63;6.28;;;;;;;13.30;100.00;101494.56;5089169;28;20016;-67
2022/10/17 00:35:05;;;;;;;12.18;6.47;;;;;;;13.35;100.00;101500.16;5089103;28;20126;-67
2022/10/17 00:37:31;;;;;;;11.30;6.13;;;;;;;13.33;100.00;101496.84;5089085;28;20050;-67
2022/10/17 00:39:57;;;;;;;10.80;6.18;;;;;;;13.38;100.00;101501.63;5088854;28;20127;-67
2022/10/17 00:42:23;;;;;;;10.68;5.75;;;;;;;13.39;100.00;101503.28;5089123;28;20455;-67
2022/10/17 00:44:49;;;;;;;10.77;6.05;;;;;;;13.37;100.00;101497.31;5087775;28;20027;-67
2022/10/17 00:47:18;;;;;;;12.03;7.23;;;;;;;13.38;100.00;101493.59;5089049;28;20028;-67
2022/10/17 00:49:44;;;;;;;13.32;6.68;;;;;;;13.35;100.00;101491.31;5088662;28;20284;-67
2022/10/17 00:52:18;;;;;;;11.73;6.25;;;;;;;13.38;100.00;101494.41;5089009;28;20061;-67
2022/10/17 00:54:47;;;;;;;12.77;6.55;;;;;;;13.38;100.00;101496.25;5088929;28;20042;-67
2022/10/17 00:57:13;;;;;;;13.15;6.70;;;;;;;13.39;100.00;101489.91;5088838;28;20640;-67
2022/10/17 00:59:41;;;;;;;12.35;7.65;;;;;;;13.40;100.00;101491.53;5088566;28;20395;-67
2022/10/17 01:02:12;;;;;;;12.45;6.47;;;;;;;13.41;100.00;101495.84;5088926;28;20054;-67
2022/10/17 01:04:40;;;;;;;13.30;7.43;;;;;;;13.38;100.00;101488.22;5088941;28;20028;-67
2022/10/17 01:07:06;;;;;;;12.38;7.28;;;;;;;13.42;100.00;101488.66;5088780;28;20315;-67
2022/10/17 01:09:31;;;;;;;12.98;6.40;;;;;;;13.41;100.00;101495.84;5088654;28;20024;-67
2022/10/17 01:12:15;;;;;;;14.35;7.07;;;;;;;13.42;100.00;101489.50;5088628;28;20040;-67
2022/10/17 01:15:12;;;;;;;14.65;6.80;;;;;;;13.44;100.00;101490.13;5089812;28;20051;-67
2022/10/17 01:18:07;;;;;;;12.32;6.20;;;;;;;13.49;100.00;101489.50;5075847;28;20479;-67
2022/10/17 01:20:54;;;;;;;17.85;7.35;;;;;;;13.50;100.00;101481.28;5076975;28;20044;-67
2022/10/17 01:23:41;;;;;;;13.10;7.53;;;;;;;13.55;100.00;101480.69;5092162;28;20028;-67
2022/10/17 01:26:36;;;;;;;11.63;6.20;;;;;;;13.59;100.00;101488.09;5092327;28;20092;-67
2022/10/17 01:29:39;;;;;;;12.85;6.97;;;;;;;13.64;100.00;101492.88;5092056;28;20050;-68
2022/10/17 01:32:26;;;;;;;18.65;7.93;;;;;;;13.70;100.00;101492.06;5092130;28;20062;-67
2022/10/17 01:34:59;;;;;;;13.48;7.18;;;;;;;13.75;100.00;101494.97;5091845;28;20182;-66
2022/10/17 01:37:33;;;;;;;15.25;8.10;;;;;;;13.78;100.00;101478.47;5091805;28;20043;-67
2022/10/17 01:40:07;;;;;;;16.75;8.00;;;;;;;13.81;100.00;101482.63;5091757;28;20044;-67
2022/10/17 01:42:55;;;;;;;14.30;7.32;;;;;;;13.85;100.00;101478.47;5091974;28;20020;-67
2022/10/17 01:45:39;;;;;;;13.23;7.47;;;;;;;13.88;100.00;101477.25;5091853;28;20034;-67
2022/10/17 01:48:11;;;;;;;13.82;7.55;;;;;;;13.92;100.00;101475.84;5091931;28;20193;-67
2022/10/17 01:50:42;;;;;;;13.32;6.80;;;;;;;13.93;100.00;101464.88;5091576;28;20538;-67
2022/10/17 01:53:13;;;;;;;14.27;7.63;;;;;;;13.98;100.00;101465.09;5091730;28;20024;-67
2022/10/17 01:55:43;;;;;;;14.35;7.93;;;;;;;14.02;100.00;101461.00;5092056;28;20085;-67
2022/10/17 01:58:13;;;;;;;15.30;7.70;;;;;;;14.05;100.00;101462.44;5091700;28;20118;-67
2022/10/17 02:00:42;;;;;;;12.00;6.73;;;;;;;14.08;100.00;101461.22;5091819;28;21033;-67
2022/10/17 02:03:12;;;;;;;15.35;7.63;;;;;;;14.10;100.00;101459.97;5091464;28;20566;-67
2022/10/17 02:05:41;;;;;;;15.02;7.65;;;;;;;14.12;100.00;101467.78;5091372;28;20032;-67
2022/10/17 02:08:07;;;;;;;11.52;7.00;;;;;;;14.14;100.00;101465.75;5091568;28;20471;-67
2022/10/17 02:10:32;;;;;;;13.10;7.30;;;;;;;14.16;100.00;101463.69;5091347;28;20112;-67
2022/10/17 02:13:17;;;;;;;15.13;8.23;;;;;;;14.16;100.00;101466.38;5091293;28;20027;-67
2022/10/17 02:16:06;;;;;;;15.20;7.75;;;;;;;14.13;100.00;101464.09;5090829;28;20285;-67
2022/10/17 02:19:02;;;;;;;13.32;6.95;;;;;;;14.11;100.00;101464.28;5073367;28;20077;-67
2022/10/17 02:21:50;;;;;;;13.27;7.45;;;;;;;14.09;100.00;101458.31;5091179;28;20110;-67
2022/10/17 02:24:31;;;;;;;14.48;7.55;;;;;;;14.09;100.00;101455.63;5091185;28;20028;-67
2022/10/17 02:27:05;;;;;;;14.55;8.43;;;;;;;14.09;100.00;101450.25;5090572;28;20028;-67
2022/10/17 02:29:38;;;;;;;13.32;8.05;;;;;;;14.09;100.00;101458.31;5091071;28;20370;-67
2022/10/17 02:32:09;;;;;;;13.25;7.28;;;;;;;14.07;100.00;101462.22;5091079;28;20100;-67
2022/10/17 02:34:40;;;;;;;15.50;8.63;;;;;;;14.11;100.00;101463.47;5090914;28;20375;-67
2022/10/17 02:37:08;;;;;;;14.18;7.90;;;;;;;14.08;100.00;101458.53;5090866;28;20050;-67
2022/10/17 02:39:34;;;;;;;15.18;7.43;;;;;;;14.08;100.00;101464.72;5090597;28;20507;-67
2022/10/17 02:42:04;;;;;;;13.93;8.32;;;;;;;14.11;100.00;101463.47;5090792;28;20598;-67
2022/10/17 02:44:31;;;;;;;12.45;6.82;;;;;;;14.11;100.00;101463.47;5090617;28;20051;-67
2022/10/17 02:47:22;;;;;;;15.73;7.78;;;;;;;14.13;100.00;101451.50;5090674;28;20113;-67
2022/10/17 02:49:53;;;;;;;13.70;8.53;;;;;;;14.14;100.00;101452.31;5079748;28;20036;-67
2022/10/17 02:52:32;;;;;;;15.23;8.75;;;;;;;14.15;100.00;101451.31;5090610;28;20111;-67
2022/10/17 02:55:19;;;;;;;13.68;7.57;;;;;;;14.15;100.00;101454.00;5090548;28;20089;-67
2022/10/17 02:57:51;;;;;;;16.02;9.00;;;;;;;14.14;100.00;101453.16;5090433;28;20024;-67
2022/10/17 03:00:18;;;;;;;16.05;7.68;;;;;;;14.13;100.00;101448.81;5090271;28;20036;-67
2022/10/17 03:02:49;;;;;;;16.35;8.80;;;;;;;14.18;100.00;101456.28;5090317;28;20038;-67
2022/10/17 03:05:19;;;;;;;14.77;7.97;;;;;;;14.19;100.00;101449.84;5090401;28;20046;-67
2022/10/17 03:07:44;;;;;;;13.13;6.47;;;;;;;14.18;100.00;101454.41;5090223;28;20059;-67
2022/10/17 03:10:10;;;;;;;14.25;7.97;;;;;;;14.20;100.00;101455.03;5090021;28;20097;-67
2022/10/17 03:12:35;;;;;;;18.40;9.68;;;;;;;14.22;100.00;101455.63;5088819;28;20032;-67
2022/10/17 03:15:01;;;;;;;14.90;7.90;;;;;;;14.21;100.00;101450.47;5090178;28;20081;-67
2022/10/17 03:17:26;;;;;;;14.73;8.55;;;;;;;14.23;100.00;101446.56;5090267;28;20952;-67
2022/10/17 03:19:51;;;;;;;16.55;7.80;;;;;;;14.22;100.00;101452.94;5089992;28;20032;-67
2022/10/17 03:22:17;;;;;;;18.13;8.90;;;;;;;14.24;100.00;101444.69;5089967;28;20040;-67
2022/10/17 03:24:42;;;;;;;17.45;9.35;;;;;;;14.25;100.00;101449.03;5089957;28;20118;-67
2022/10/17 03:27:08;;;;;;;18.58;8.13;;;;;;;14.25;100.00;101449.88;5089866;28;20032;-67
2022/10/17 03:29:33;;;;;;;15.05;8.30;;;;;;;14.27;100.00;101457.69;5089772;28;20537;-67
2022/10/17 03:31:58;;;;;;;14.88;7.82;;;;;;;14.28;100.00;101458.53;5089770;28;20126;-67
2022/10/17 03:34:24;;;;;;;14.55;7.88;;;;;;;14.25;100.00;101460.59;5089802;28;20028;-67
2022/10/17 03:36:49;;;;;;;15.63;8.07;;;;;;;14.24;100.00;101458.94;5089150;28;20093;-67
2022/10/17 03:39:14;;;;;;;16.95;8.30;;;;;;;14.25;100.00;101457.94;5087797;28;20036;-67
2022/10/17 03:41:40;;;;;;;16.92;7.85;;;;;;;14.30;100.00;101459.97;5089588;28;20126;-67
2022/10/17 03:44:05;;;;;;;15.02;7.85;;;;;;;14.31;100.00;101460.81;5089698;28;20479;-67
2022/10/17 03:46:30;;;;;;;19.20;7.63;;;;;;;14.33;100.00;101459.56;5089714;28;20036;-65
2022/10/17 03:48:56;;;;;;;15.40;8.70;;;;;;;14.34;100.00;101455.84;5089630;28;20036;-65
2022/10/17 03:51:21;;;;;;;16.35;7.95;;;;;;;14.37;100.00;101459.97;5089514;28;20039;-65
2022/10/17 03:53:46;;;;;;;13.80;7.35;;;;;;;14.38;100.00;101456.25;5089513;28;20067;-65
2022/10/17 03:56:14;;;;;;;13.90;8.07;;;;;;;14.37;100.00;101458.13;5089437;28;20551;-65
2022/10/17 03:58:41;;;;;;;17.88;9.50;;;;;;;14.36;100.00;101448.44;5089426;28;20031;-65
2022/10/17 04:01:08;;;;;;;15.88;7.60;;;;;;;14.43;100.00;101449.22;5089604;28;20442;-65
2022/10/17 04:03:33;;;;;;;21.08;7.80;;;;;;;14.47;100.00;101452.34;5089505;28;20036;-65
2022/10/17 04:06:01;;;;;;;15.32;8.38;;;;;;;14.47;100.00;101446.97;5089405;28;20078;-65
2022/10/17 04:08:27;;;;;;;16.08;7.72;;;;;;;14.52;100.00;101452.53;5089277;28;20431;-65
2022/10/17 04:10:58;;;;;;;15.77;7.32;;;;;;;14.53;100.00;101456.06;5089252;28;20085;-65
2022/10/17 04:13:23;;;;;;;14.60;6.93;;;;;;;14.57;100.00;101458.16;5089287;28;20421;-65
2022/10/17 04:15:55;;;;;;;14.75;8.25;;;;;;;14.61;100.00;101454.00;5089328;28;20039;-65
2022/10/17 04:18:20;;;;;;;;;;;;;;;14.66;100.00;101467.63;5089720;28;20035;-65
2022/10/17 04:20:45;;;;;;;15.30;8.05;;;;;;;14.71;100.00;101464.31;5089096;28;19912;-65
2022/10/17 04:23:11;;;;;;;12.05;6.55;;;;;;;14.75;100.00;101459.34;5089323;28;20352;-65
2022/10/17 04:25:36;;;;;;;14.98;7.80;;;;;;;14.81;100.00;101470.09;5089373;28;20028;-65
2022/10/17 04:28:01;;;;;;;16.23;8.05;;;;;;;14.92;100.00;101473.16;5089207;28;20025;-65
2022/10/17 04:30:27;;;;;;;14.07;8.02;;;;;;;14.95;100.00;101476.25;5090514;28;20164;-65
2022/10/17 04:32:53;;;;;;;13.90;6.65;;;;;;;15.03;100.00;101484.06;5089887;28;20036;-65
2022/10/17 04:35:18;;;;;;;14.75;8.32;;;;;;;15.09;100.00;101475.19;5089222;28;20982;-65
2022/10/17 04:37:43;;;;;;;12.68;6.82;;;;;;;15.11;100.00;101472.28;5088938;28;20039;-65
2022/10/17 04:40:09;;;;;;;14.38;8.63;;;;;;;15.09;100.00;101480.56;5088843;28;20063;-65
2022/10/17 04:42:34;;;;;;;12.57;6.57;;;;;;;15.10;100.00;101492.13;5087753;28;20043;-65
2022/10/17 04:45:00;;;;;;;14.32;7.93;;;;;;;15.14;100.00;101485.28;5089069;28;20043;-65
2022/10/17 04:47:25;;;;;;;14.18;7.30;;;;;;;15.13;100.00;101479.09;5089090;28;20024;-65
2022/10/17 04:49:50;;;;;;;14.88;7.07;;;;;;;15.11;100.00;101481.16;5091899;28;20027;-65
2022/10/17 04:52:16;;;;;;;12.82;7.43;;;;;;;15.12;100.00;101507.00;5092833;28;20035;-65
2022/10/17 04:54:41;;;;;;;11.48;6.88;;;;;;;15.09;100.00;101491.31;5092721;28;20055;-65
2022/10/17 04:57:06;;;;;;;14.45;6.88;;;;;;;15.07;100.00;101504.13;5092726;28;20113;-65
2022/10/17 04:59:32;;;;;;;15.02;7.15;;;;;;;15.03;100.00;101505.56;5091200;28;20067;-66
2022/10/17 05:01:57;;;;;;;14.80;6.97;;;;;;;15.02;100.00;101511.16;5092772;28;20117;-65
2022/10/17 05:04:24;;;;;;;13.80;6.28;;;;;;;15.00;100.00;101513.22;5091201;28;20032;-66
2022/10/17 05:06:49;;;;;;;11.40;6.43;;;;;;;14.99;100.00;101517.78;5092664;28;20039;-65
2022/10/17 05:09:14;;;;;;;14.23;7.32;;;;;;;14.95;100.00;101513.84;5092492;28;20028;-65
2022/10/17 05:11:41;;;;;;;10.73;6.95;;;;;;;14.91;100.00;101509.94;5092367;28;20038;-66
2022/10/17 05:14:07;;;;;;;13.02;6.10;;;;;;;14.92;100.00;101525.03;5092430;28;20398;-65
2022/10/17 05:16:32;;;;;;;12.35;6.30;;;;;;;14.91;100.00;101520.69;5092258;28;20028;-65
2022/10/17 05:18:58;;;;;;;12.65;6.55;;;;;;;14.90;100.00;101529.75;5092272;28;20039;-66
2022/10/17 05:21:25;;;;;;;11.90;5.53;;;;;;;14.89;100.00;101517.38;5092217;28;20031;-65
2022/10/17 05:23:51;;;;;;;12.93;7.03;;;;;;;14.87;100.00;101512.22;5092212;28;20040;-65
2022/10/17 05:26:17;;;;;;;11.32;5.57;;;;;;;14.86;100.00;101518.63;5092195;28;20055;-65
2022/10/17 05:28:42;;;;;;;13.10;6.18;;;;;;;14.85;100.00;101516.97;5092204;28;20084;-66
2022/10/17 05:31:09;;;;;;;10.07;5.97;;;;;;;14.84;100.00;101520.69;5092441;28;20020;-65
2022/10/17 05:33:35;;;;;;;10.63;5.80;;;;;;;14.84;100.00;101531.44;5092121;28;20024;-65
2022/10/17 05:36:01;;;;;;;14.43;6.88;;;;;;;14.86;100.00;101536.59;5091982;28;20037;-65
2022/10/17 05:38:27;;;;;;;11.05;6.38;;;;;;;14.84;100.00;101530.63;5091873;28;20678;-65
2022/10/17 05:41:00;;;;;;;16.10;6.97;;;;;;;14.88;100.00;101535.38;5090397;28;20119;-65
2022/10/17 05:43:26;;;;;;;15.15;6.75;;;;;;;14.87;100.00;101535.56;5092000;28;20035;-66
2022/10/17 05:45:52;;;;;;;11.35;6.68;;;;;;;14.87;100.00;101543.63;5091968;28;20427;-65
2022/10/17 05:48:18;;;;;;;9.80;6.30;;;;;;;14.88;100.00;101542.56;5091848;28;21015;-66
2022/10/17 05:50:44;;;;;;;12.77;6.55;;;;;;;14.86;100.00;101537.44;5091800;28;20070;-66
2022/10/17 05:53:09;;;;;;;12.52;7.35;;;;;;;14.88;100.00;101546.09;5091668;28;20518;-65
2022/10/17 05:55:35;;;;;;;13.23;7.03;;;;;;;14.90;100.00;101548.56;5091668;28;20058;-65
2022/10/17 05:58:00;;;;;;;12.77;6.53;;;;;;;14.91;100.00;101544.88;5091544;28;20042;-65
2022/10/17 06:00:26;;;;;;;13.85;6.40;;;;;;;14.93;100.00;101552.69;5090565;28;20028;-66
2022/10/17 06:02:51;;;;;;;12.25;6.50;;;;;;;14.89;100.00;101553.13;5091560;28;20035;-66
2022/10/17 06:05:16;;;;;;;12.55;6.18;;;;;;;14.91;100.00;101558.28;5091464;28;20104;-66
2022/10/17 06:07:42;;;;;;;11.60;6.20;;;;;;;14.90;100.00;101549.38;5091313;28;20042;-66
2022/10/17 06:10:11;;;;;;;12.35;6.40;;;;;;;14.92;100.00;101549.19;5091144;28;20020;-67
2022/10/17 06:12:36;;;;;;;13.23;7.38;;;;;;;14.88;100.00;101537.19;5091258;28;20032;-67
2022/10/17 06:15:01;;;;;;;12.63;7.13;;;;;;;14.94;100.00;101543.63;5090974;28;20050;-67
2022/10/17 06:17:28;;;;;;;12.23;7.18;;;;;;;14.99;100.00;101549.19;5091202;28;20042;-68
2022/10/17 06:19:53;;;;;;;12.60;7.47;;;;;;;15.00;100.00;101548.16;5091014;28;20052;-68
2022/10/17 06:22:18;;;;;;;14.00;6.90;;;;;;;15.01;100.00;101556.00;5090982;28;20047;-67
2022/10/17 06:24:43;;;;;;;11.82;6.57;;;;;;;15.02;100.00;101559.53;5090847;28;20452;-68
2022/10/17 06:27:09;;;;;;;13.90;7.47;;;;;;;15.03;100.00;101561.97;5090750;28;20483;-68
2022/10/17 06:29:34;;;;;;;13.00;7.40;;;;;;;15.07;100.00;101563.22;5089507;28;20364;-68
2022/10/17 06:32:00;;;;;;;11.35;6.80;;;;;;;15.02;100.00;101552.28;5090753;28;20077;-68
2022/10/17 06:34:25;;;;;;;13.32;7.05;;;;;;;15.09;100.00;101557.63;5090896;28;20497;-68
2022/10/17 06:36:52;;;;;;;16.00;6.93;;;;;;;15.11;100.00;101558.25;5090607;28;20965;-67
2022/10/17 06:39:17;;;;;;;10.57;5.85;;;;;;;15.13;100.00;101569.63;5090411;28;20067;-67
2022/10/17 06:41:43;;;;;;;14.07;5.93;;;;;;;15.11;100.00;101558.25;5090426;28;20463;-67
2022/10/17 06:44:12;;;;;;;13.90;7.18;;;;;;;15.16;100.00;101558.44;5072395;28;20077;-67
2022/10/17 06:46:38;;;;;;;10.98;7.03;;;;;;;15.21;100.00;101558.66;5090614;28;20032;-68
2022/10/17 06:49:04;;;;;;;16.35;7.75;;;;;;;15.23;100.00;101558.47;5090525;28;20483;-67
2022/10/17 06:51:31;;;;;;;11.77;6.22;;;;;;;15.26;100.00;101556.16;5090392;28;20024;-67
2022/10/17 06:53:57;;;;;;;15.43;6.88;;;;;;;15.32;100.00;101579.50;5090315;28;20036;-67
2022/10/17 06:56:23;;;;;;;20.02;7.38;;;;;;;15.39;100.00;101573.31;5090324;28;20027;-68
2022/10/17 06:58:50;;;;;;;9.93;6.30;;;;;;;15.45;100.00;101577.81;5090454;28;20364;-68
2022/10/17 07:01:16;;;;;;;14.73;7.40;;;;;;;15.49;100.00;101582.56;5090328;28;20024;-68
2022/10/17 07:03:42;;;;;;;13.07;7.00;;;;;;;15.52;100.00;101576.78;5088044;28;20063;-66
2022/10/17 07:06:10;;;;;;;11.18;6.28;;;;;;;15.60;100.00;101580.28;5089575;28;20031;-66
2022/10/17 07:08:35;;;;;;;10.50;5.60;;;;;;;15.65;100.00;101570.53;5089778;28;20035;-66
2022/10/17 07:11:09;;;;;;;11.77;7.57;;;;;;;15.72;100.00;101582.13;5090049;28;20390;-67
2022/10/17 07:13:34;;;;;;;12.07;6.18;;;;;;;15.74;100.00;101576.50;5088435;28;20028;-66
2022/10/17 07:16:00;;;;;;;14.32;7.18;;;;;;;15.80;100.00;101575.69;5090039;28;20028;-66
2022/10/17 07:18:25;;;;;;;11.27;5.65;;;;;;;15.84;100.00;101581.44;5089884;28;20111;-66
2022/10/17 07:20:53;;;;;;;10.57;5.60;;;;;;;15.85;100.00;101592.00;5089703;28;20031;-66
2022/10/17 07:23:19;;;;;;;10.18;5.93;;;;;;;15.86;100.00;101590.13;5088480;28;20089;-66
2022/10/17 07:25:44;;;;;;;10.98;6.03;;;;;;;15.89;100.00;101595.91;5089846;28;20387;-66
2022/10/17 07:28:09;;;;;;;10.30;5.88;;;;;;;15.93;100.00;101597.13;5089882;28;20036;-66
2022/10/17 07:30:35;;;;;;;11.45;6.15;;;;;;;15.97;100.00;101597.53;5089720;28;20026;-66
2022/10/17 07:33:00;;;;;;;12.88;6.15;;;;;;;15.98;100.00;101618.84;5089658;28;20032;-66
2022/10/17 07:35:25;;;;;;;10.35;5.93;;;;;;;16.03;100.00;101609.28;5089665;28;20146;-66
2022/10/17 07:37:51;;;;;;;13.85;6.43;;;;;;;16.02;100.00;101613.03;5086965;28;20510;-66
2022/10/17 07:40:16;;;;;;;10.65;5.40;;;;;;;16.03;100.00;101622.75;5084739;28;20044;-67
2022/10/17 07:42:42;;;;;;;10.88;6.05;;;;;;;16.01;100.00;101628.38;5067000;28;20067;-67
2022/10/17 07:45:08;;;;;;;12.30;6.85;;;;;;;16.03;100.00;101637.03;5085419;28;20035;-67
2022/10/17 07:47:36;;;;;;;8.80;5.43;;;;;;;16.03;100.00;101666.63;5085468;28;20036;-68
2022/10/17 07:50:03;;;;;;;9.07;5.65;;;;;;;15.99;100.00;101673.47;5084995;28;20042;-68
2022/10/17 07:52:29;;;;;;;12.10;6.30;;;;;;;16.04;100.00;101697.06;5084768;28;20020;-68
2022/10/17 07:54:54;;;;;;;8.30;5.60;;;;;;;16.05;100.00;101717.56;5084760;28;20344;-68
2022/10/17 07:57:19;;;;;;;11.13;6.20;;;;;;;16.07;100.00;101724.38;5085245;28;20050;-68
2022/10/17 07:59:46;;;;;;;11.68;6.03;;;;;;;16.08;100.00;101720.63;5084710;28;20123;-67
2022/10/17 08:02:22;;;;;;;9.32;5.63;;;;;;;16.08;100.00;101735.97;5085094;28;20035;-67
2022/10/17 08:04:47;;;;;;;9.43;5.60;;;;;;;16.06;100.00;101727.25;5084792;28;20028;-68
2022/10/17 08:07:13;;;;;;;11.32;5.78;;;;;;;16.06;100.00;101727.25;5084410;28;20038;-67
2022/10/17 08:09:39;;;;;;;11.73;5.82;;;;;;;16.09;100.00;101738.44;5084331;28;20132;-66
2022/10/17 08:12:04;;;;;;;10.40;5.18;;;;;;;16.14;100.00;101737.81;5084950;28;20475;-67
2022/10/17 08:14:30;;;;;;;7.63;5.25;;;;;;;16.19;100.00;101740.69;5084702;28;20105;-68
2022/10/17 08:16:55;;;;;;;9.98;4.57;;;;;;;16.27;100.00;101736.94;5084281;28;20032;-68
2022/10/17 08:19:20;;;;;;;7.30;4.97;;;;;;;16.32;100.00;101731.72;5084306;28;20020;-68
2022/10/17 08:21:46;;;;;;;7.70;4.90;;;;;;;16.35;100.00;101734.03;5084818;28;20023;-68
2022/10/17 08:24:11;;;;;;;9.40;5.95;;;;;;;16.34;100.00;101746.63;5087034;28;20020;-68
2022/10/17 08:26:37;;;;;;;7.53;3.78;;;;;;;16.41;100.00;101770.84;5088934;28;20020;-68
2022/10/17 08:29:02;;;;;;;9.52;5.18;;;;;;;16.40;100.00;101763.78;5088407;28;20486;-68
2022/10/17 08:31:28;;;;;;;9.98;5.28;;;;;;;16.36;100.00;101789.50;5088883;28;20485;-68
2022/10/17 08:33:53;;;;;;;10.57;5.38;;;;;;;16.32;100.00;101812.50;5088579;28;20497;-67
2022/10/17 08:36:20;;;;;;;8.45;5.13;;;;;;;16.31;100.00;101810.84;5086534;28;20496;-70
2022/10/17 08:38:45;;;;;;;10.77;6.03;;;;;;;16.27;100.00;101797.00;5086735;28;20039;-71
2022/10/17 08:41:37;;;;;;;11.38;5.75;;;;;;;16.26;100.00;101789.94;5088305;28;20507;-69
2022/10/17 08:44:27;;;;;;;11.45;5.93;;;;;;;16.26;100.00;101797.19;5088575;28;20360;-67
2022/10/17 08:46:57;;;;;;;11.98;5.50;;;;;;;16.28;100.00;101801.34;5088351;28;20036;-68
2022/10/17 08:49:47;;;;;;;10.75;5.50;;;;;;;16.26;100.00;101795.31;5088323;28;20024;-67
2022/10/17 08:52:43;;;;;;;12.00;5.80;;;;;;;16.25;100.00;101795.56;5088386;28;20036;-69
2022/10/17 08:55:37;;;;;;;11.18;5.63;;;;;;;16.18;100.00;101793.69;5088830;28;20039;-66
2022/10/17 08:58:11;;;;;;;10.30;5.82;;;;;;;16.17;100.00;101804.69;5089741;28;20375;-66
2022/10/17 09:00:38;;;;;;;9.07;5.50;;;;;;;16.13;100.00;101814.19;5092576;28;20070;-66
2022/10/17 09:03:22;;;;;;;9.95;5.85;;;;;;;16.12;100.00;101813.38;5092952;28;20042;-66
2022/10/17 09:06:14;;;;;;;10.57;6.22;;;;;;;16.11;100.00;101786.66;5092598;28;20027;-66
2022/10/17 09:09:05;;;;;;;;;;;;;;;16.12;100.00;101799.91;5092366;28;20453;-66
2022/10/17 09:11:40;;;;;;;12.40;5.00;;;;;;;16.09;100.00;101796.84;5091096;28;19947;-66
2022/10/17 09:14:17;;;;;;;9.18;5.63;;;;;;;16.06;100.00;101800.78;5092203;28;20028;-66
2022/10/17 09:17:16;;;;;;;10.80;5.07;;;;;;;16.03;100.00;101801.16;5092413;28;20035;-66
2022/10/17 09:20:19;;;;;;;16.77;6.35;;;;;;;16.03;100.00;101820.00;5092310;28;20020;-66
2022/10/17 09:22:48;;;;;;;12.48;6.45;;;;;;;16.00;100.00;101826.63;5092234;28;20060;-66
2022/10/17 09:25:17;;;;;;;11.20;6.30;;;;;;;16.00;100.00;101840.09;5092266;28;20475;-66
2022/10/17 09:27:58;;;;;;;11.98;6.47;;;;;;;16.02;100.00;101857.91;5092098;28;20519;-66
2022/10/17 09:30:44;;;;;;;11.15;6.05;;;;;;;15.98;100.00;101854.78;5094008;28;20034;-65
2022/10/17 09:33:15;;;;;;;13.52;5.90;;;;;;;15.92;100.00;101902.19;5093965;28;20055;-65
2022/10/17 09:35:42;;;;;;;10.98;5.82;;;;;;;15.88;100.00;101900.97;5090825;28;20028;-65
2022/10/17 09:38:16;;;;;;;11.15;6.28;;;;;;;15.87;100.00;101820.44;5091762;28;20032;-65
2022/10/17 09:40:43;;;;;;;20.40;8.30;;;;;;;15.84;100.00;101780.50;5091642;28;20048;-65
2022/10/17 09:43:14;;;;;;;14.63;8.15;;;;;;;15.84;100.00;101775.13;5091706;28;20016;-65
2022/10/17 09:46:02;;;;;;;12.80;6.72;;;;;;;15.82;100.00;101763.75;5091960;28;20062;-65
2022/10/17 09:49:00;;;;;;;11.63;6.65;;;;;;;15.82;100.00;101783.41;5091858;28;20075;-65
2022/10/17 09:51:26;;;;;;;12.20;6.18;;;;;;;15.82;100.00;101793.34;5089943;28;20131;-65
2022/10/17 09:54:04;;;;;;;16.13;7.50;;;;;;;15.85;100.00;101817.13;5091613;28;20028;-65
2022/10/17 09:56:29;;;;;;;17.48;7.20;;;;;;;15.86;100.00;101835.75;5091639;28;20036;-65
2022/10/17 09:58:56;;;;;;;10.82;6.05;;;;;;;15.87;100.00;101839.28;5091577;28;20146;-65
2022/10/17 10:01:29;;;;;;;15.50;7.75;;;;;;;15.87;100.00;101836.59;5091461;28;20028;-65
2022/10/17 10:04:11;;;;;;;12.35;6.55;;;;;;;15.89;100.00;101837.22;5091499;28;20170;-65
2022/10/17 10:06:38;;;;;;;10.35;5.50;;;;;;;15.89;100.00;101834.50;5091303;28;20081;-65
2022/10/17 10:09:05;;;;;;;12.20;5.95;;;;;;;15.90;100.00;101830.78;5091408;28;20047;-65
2022/10/17 10:11:52;;;;;;;11.88;6.40;;;;;;;15.93;100.00;101819.63;5091232;28;20375;-65
2022/10/17 10:14:36;;;;;;;10.25;6.18;;;;;;;15.98;100.00;101817.09;5091316;28;20080;-66
2022/10/17 10:17:04;;;;;;;12.98;6.38;;;;;;;16.03;100.00;101816.50;5090944;28;20054;-65
2022/10/17 10:19:31;;;;;;;11.02;6.65;;;;;;;16.06;100.00;101813.38;5091073;28;20036;-65
2022/10/17 10:22:13;;;;;;;11.43;6.63;;;;;;;16.10;100.00;101828.91;5091005;28;20024;-65
2022/10/17 10:24:38;;;;;;;12.82;6.55;;;;;;;16.12;100.00;101842.97;5091129;28;20051;-65
2022/10/17 10:27:04;;;;;;;12.05;6.32;;;;;;;16.12;100.00;101845.69;5091002;28;20055;-65
2022/10/17 10:29:35;;;;;;;11.25;5.38;;;;;;;16.08;100.00;101852.50;5090937;28;20550;-65
2022/10/17 10:32:22;;;;;;;15.13;6.88;;;;;;;16.09;100.00;101856.88;5090651;28;20032;-65
2022/10/17 10:35:17;;;;;;;8.23;5.70;;;;;;;16.13;100.00;101871.53;5090728;28;20103;-65
2022/10/17 10:37:46;;;;;;;18.13;7.95;;;;;;;16.14;100.00;101869.69;5090780;28;20085;-65
2022/10/17 10:40:22;;;;;;;13.75;6.72;;;;;;;16.16;100.00;101879.19;5090451;28;20035;-65
2022/10/17 10:42:50;;;;;;;14.60;8.00;;;;;;;16.16;100.00;101875.69;5090716;28;20032;-65
2022/10/17 10:45:17;;;;;;;13.88;7.82;;;;;;;16.17;100.00;101871.97;5090664;28;20371;-65
2022/10/17 10:47:58;;;;;;;12.55;7.07;;;;;;;16.18;100.00;101879.00;5090316;28;20471;-66
2022/10/17 10:50:31;;;;;;;14.13;8.52;;;;;;;16.22;100.00;101885.63;5090490;28;20055;-66
2022/10/17 10:53:34;;;;;;;14.70;7.55;;;;;;;16.27;100.00;101896.59;5090423;28;20032;-66
2022/10/17 10:56:08;;;;;;;13.45;6.93;;;;;;;16.28;100.00;101905.50;5090518;28;20089;-66
2022/10/17 10:58:46;;;;;;;11.27;5.57;;;;;;;16.25;100.00;101906.75;5090375;28;20027;-65
2022/10/17 11:01:24;;;;;;;10.45;6.05;;;;;;;16.26;100.00;101921.03;5090390;28;20036;-66
2022/10/17 11:04:28;;;;;;;12.45;5.85;;;;;;;16.28;100.00;101924.34;5090376;28;20467;-66
2022/10/17 11:07:09;;;;;;;11.73;5.22;;;;;;;16.27;100.00;101910.06;5073958;28;20044;-65
2022/10/17 11:09:44;;;;;;;13.30;6.10;;;;;;;16.28;100.00;101921.66;5090037;28;20032;-65
2022/10/17 11:12:09;;;;;;;8.57;5.10;;;;;;;16.26;100.00;101926.41;5090123;28;20031;-66
2022/10/17 11:14:49;;;;;;;11.23;6.03;;;;;;;16.26;100.00;101935.31;5090002;28;20019;-66
2022/10/17 11:17:16;;;;;;;10.90;5.68;;;;;;;16.26;100.00;101935.31;5089988;28;20313;-65
2022/10/17 11:20:00;;;;;;;10.38;5.65;;;;;;;16.26;100.00;101929.94;5089688;28;20100;-65
2022/10/17 11:22:45;;;;;;;12.80;6.40;;;;;;;16.28;100.00;101944.00;5085158;28;20035;-65
2022/10/17 11:25:11;;;;;;;11.13;5.85;;;;;;;16.29;100.00;101944.84;5085649;28;20084;-66